Time;durP1;ratioP1;P1;durP2;ratioP2;P2;SDS_P1;SDS_P2;PMS_P1;PMS_P2;Temp;Humidity;BMP_temperature;BMP_pressure;BME280_temperature;BME280_humidity;BME280_pressure;Samples;Min_cycle;Max_cycle;Signal;HPM_P1;HPM_P2
2023/04/03 00:00:06;;;;;;;3.53;3.03;;;5.50;94.80;;;;;;5053207;28;20441;-58
2023/04/03 00:02:33;;;;;;;3.87;3.57;;;5.40;94.80;;;;;;5053213;28;20454;-58
2023/04/03 00:05:01;;;;;;;5.00;3.90;;;5.40;94.80;;;;;;5053048;28;20516;-58
2023/04/03 00:07:28;;;;;;;4.30;3.33;;;5.40;94.80;;;;;;5053122;28;20909;-58
2023/04/03 00:09:55;;;;;;;4.67;3.50;;;5.30;94.90;;;;;;5053138;28;20500;-58
2023/04/03 00:12:22;;;;;;;3.40;3.20;;;5.30;94.90;;;;;;5053061;28;20861;-58
2023/04/03 00:14:48;;;;;;;3.33;3.13;;;5.30;94.80;;;;;;5053879;28;20472;-58
2023/04/03 00:17:15;;;;;;;3.43;3.17;;;5.30;94.90;;;;;;5056866;28;20978;-59
2023/04/03 00:19:42;;;;;;;4.30;4.00;;;5.30;94.90;;;;;;5056818;28;20453;-59
2023/04/03 00:22:10;;;;;;;6.80;4.37;;;5.20;94.90;;;;;;5057050;28;20453;-58
2023/04/03 00:24:36;;;;;;;4.00;3.70;;;5.20;95.00;;;;;;5056882;28;20485;-58
2023/04/03 00:27:03;;;;;;;5.23;4.73;;;5.20;95.10;;;;;;5056897;28;20943;-59
2023/04/03 00:29:30;;;;;;;3.90;3.60;;;5.20;95.20;;;;;;5057010;28;20858;-59
2023/04/03 00:31:56;;;;;;;7.47;4.70;;;5.10;95.10;;;;;;5056922;28;20450;-59
2023/04/03 00:34:23;;;;;;;4.77;4.27;;;5.10;95.20;;;;;;5056850;28;20473;-58
2023/04/03 00:36:51;;;;;;;5.50;5.00;;;5.10;95.30;;;;;;5056784;28;20449;-58
2023/04/03 00:39:19;;;;;;;5.97;5.33;;;5.10;95.30;;;;;;5056558;28;20461;-58
2023/04/03 00:41:45;;;;;;;4.60;4.20;;;5.10;95.40;;;;;;5056697;28;20446;-58
2023/04/03 00:44:23;;;;;;;4.43;4.13;;;5.10;95.60;;;;;;5056269;28;20832;-58
2023/04/03 00:46:49;;;;;;;5.60;4.50;;;5.00;95.60;;;;;;5056895;28;20425;-58
2023/04/03 00:49:16;;;;;;;4.70;4.27;;;5.00;95.70;;;;;;5056623;28;20444;-58
2023/04/03 00:51:43;;;;;;;5.17;4.77;;;5.00;95.80;;;;;;5056227;28;20454;-58
2023/04/03 00:54:10;;;;;;;4.77;4.37;;;5.00;95.80;;;;;;5056361;28;20473;-58
2023/04/03 00:56:39;;;;;;;5.37;4.60;;;4.90;95.80;;;;;;5056051;28;20940;-58
2023/04/03 00:59:11;;;;;;;5.17;3.83;;;4.90;95.90;;;;;;5056315;28;20468;-58
2023/04/03 01:01:39;;;;;;;4.10;3.73;;;4.90;95.80;;;;;;5056333;28;20499;-58
2023/04/03 01:04:06;;;;;;;5.13;4.30;;;4.90;95.90;;;;;;5055835;28;20987;-58
2023/04/03 01:06:35;;;;;;;4.20;3.80;;;4.90;95.90;;;;;;5055783;28;21021;-58
2023/04/03 01:09:02;;;;;;;3.97;3.67;;;4.80;95.90;;;;;;5055855;28;20954;-58
2023/04/03 01:11:29;;;;;;;3.83;3.53;;;4.80;95.90;;;;;;5055858;28;20939;-58
2023/04/03 01:13:57;;;;;;;4.47;4.00;;;4.80;95.90;;;;;;5056100;28;20530;-58
2023/04/03 01:16:24;;;;;;;4.27;3.90;;;4.80;95.90;;;;;;5056014;28;20445;-58
2023/04/03 01:18:51;;;;;;;4.93;4.53;;;4.70;95.90;;;;;;5056003;28;20449;-58
2023/04/03 01:21:46;;;;;;;4.73;4.33;;;4.70;95.90;;;;;;5056006;28;20456;-58
2023/04/03 01:24:31;;;;;;;4.53;4.10;;;4.70;96.10;;;;;;5056176;28;20520;-57
2023/04/03 01:26:58;;;;;;;4.63;4.23;;;4.70;96.10;;;;;;5054900;28;20473;-58
2023/04/03 01:29:26;;;;;;;5.03;4.73;;;4.70;96.10;;;;;;5055850;28;20529;-58
2023/04/03 01:31:57;;;;;;;4.50;4.10;;;4.60;96.00;;;;;;5055813;28;20449;-58
2023/04/03 01:34:25;;;;;;;5.23;4.93;;;4.60;96.00;;;;;;5055747;28;20476;-58
2023/04/03 01:36:52;;;;;;;4.73;4.33;;;4.60;96.00;;;;;;5055416;28;20954;-58
2023/04/03 01:39:20;;;;;;;4.77;4.27;;;4.60;96.00;;;;;;5055727;28;20507;-58
2023/04/03 01:41:46;;;;;;;5.03;4.63;;;4.60;96.00;;;;;;5055733;28;20454;-58
2023/04/03 01:44:14;;;;;;;8.70;5.23;;;4.60;96.00;;;;;;5055626;28;20465;-58
2023/04/03 01:46:42;;;;;;;5.00;4.20;;;4.50;96.00;;;;;;5055570;28;20481;-58
2023/04/03 01:49:11;;;;;;;4.60;4.10;;;4.50;96.10;;;;;;5055648;28;20449;-58
2023/04/03 01:51:37;;;;;;;4.80;4.40;;;4.50;96.20;;;;;;5055530;28;20453;-58
2023/04/03 01:54:04;;;;;;;5.30;4.30;;;4.50;96.30;;;;;;5055347;28;20523;-58
2023/04/03 01:56:31;;;;;;;5.40;4.90;;;4.50;96.30;;;;;;5055095;28;20962;-58
2023/04/03 01:58:57;;;;;;;4.83;4.20;;;4.40;96.30;;;;;;5055295;28;20446;-58
2023/04/03 02:01:25;;;;;;;4.77;4.37;;;4.40;96.40;;;;;;5055219;28;20449;-58
2023/04/03 02:03:52;;;;;;;7.70;4.90;;;4.40;96.40;;;;;;5054795;28;20480;-57
2023/04/03 02:06:20;;;;;;;5.03;4.53;;;4.40;96.50;;;;;;5055028;28;20588;-58
2023/04/03 02:08:47;;;;;;;5.67;5.07;;;4.40;96.50;;;;;;5054977;28;20452;-58
2023/04/03 02:11:14;;;;;;;5.87;5.20;;;4.40;96.50;;;;;;5054999;28;20452;-58
2023/04/03 02:13:40;;;;;;;5.47;4.97;;;4.40;96.50;;;;;;5054885;28;20552;-58
2023/04/03 02:16:09;;;;;;;5.60;4.90;;;4.40;96.50;;;;;;5054992;28;20454;-58
2023/04/03 02:18:36;;;;;;;4.17;3.77;;;4.30;96.50;;;;;;5055070;28;20445;-58
2023/04/03 02:21:03;;;;;;;5.07;4.33;;;4.30;96.50;;;;;;5054845;28;20445;-58
2023/04/03 02:23:31;;;;;;;7.37;4.43;;;4.30;96.60;;;;;;5054843;28;20465;-58
2023/04/03 02:26:05;;;;;;;5.03;4.53;;;4.30;96.60;;;;;;5054693;28;20531;-58
2023/04/03 02:28:31;;;;;;;5.60;4.70;;;4.20;96.60;;;;;;5054785;28;20463;-58
2023/04/03 02:30:58;;;;;;;4.83;4.43;;;4.20;96.60;;;;;;5054758;28;20866;-58
2023/04/03 02:33:25;;;;;;;5.00;4.60;;;4.20;96.70;;;;;;5054958;28;20480;-58
2023/04/03 02:35:54;;;;;;;4.60;4.30;;;4.20;96.70;;;;;;5054617;28;20446;-58
2023/04/03 02:38:21;;;;;;;5.63;5.13;;;4.20;96.80;;;;;;5054207;28;20485;-58
2023/04/03 02:40:49;;;;;;;4.30;4.00;;;4.20;96.70;;;;;;5054144;28;20480;-58
2023/04/03 02:43:15;;;;;;;5.93;5.00;;;4.20;96.60;;;;;;5055033;28;20476;-58
2023/04/03 02:45:42;;;;;;;5.10;4.70;;;4.10;96.60;;;;;;5054338;28;20477;-58
2023/04/03 02:48:09;;;;;;;8.47;5.13;;;4.10;96.70;;;;;;5054291;28;20476;-58
2023/04/03 02:50:35;;;;;;;10.40;4.90;;;4.10;96.70;;;;;;5054293;28;20453;-59
2023/04/03 02:53:02;;;;;;;5.53;4.93;;;4.10;96.80;;;;;;5054241;28;20473;-58
2023/04/03 02:55:29;;;;;;;5.70;5.20;;;4.10;96.90;;;;;;5054213;28;20450;-58
2023/04/03 02:57:57;;;;;;;6.30;5.40;;;4.10;97.10;;;;;;5054193;28;20476;-58
2023/04/03 03:00:24;;;;;;;5.73;5.23;;;4.10;97.20;;;;;;5054196;28;20453;-58
2023/04/03 03:02:50;;;;;;;6.57;5.63;;;4.10;97.20;;;;;;5053938;28;20552;-58
2023/04/03 03:05:18;;;;;;;6.37;5.83;;;4.10;97.20;;;;;;5053922;28;20450;-58
2023/04/03 03:07:45;;;;;;;6.37;5.50;;;4.10;97.50;;;;;;5053925;28;20476;-59
2023/04/03 03:10:11;;;;;;;6.10;5.60;;;4.10;97.20;;;;;;5053828;28;20476;-59
2023/04/03 03:12:38;;;;;;;7.70;5.87;;;4.10;97.30;;;;;;5053814;28;20450;-59
2023/04/03 03:15:08;;;;;;;10.40;6.73;;;4.10;97.40;;;;;;5053860;28;20461;-59
2023/04/03 03:17:36;;;;;;;7.23;6.27;;;4.00;97.40;;;;;;5053798;28;20815;-59
2023/04/03 03:20:02;;;;;;;9.60;5.77;;;4.10;97.50;;;;;;5053722;28;20943;-59
2023/04/03 03:22:29;;;;;;;7.17;5.83;;;4.10;97.60;;;;;;5053760;28;20448;-59
2023/04/03 03:24:56;;;;;;;7.10;6.37;;;4.10;97.70;;;;;;5053665;28;20476;-59
2023/04/03 03:27:23;;;;;;;8.30;7.50;;;4.10;97.80;;;;;;5053716;28;20527;-59
2023/04/03 03:29:50;;;;;;;6.60;5.97;;;4.10;97.80;;;;;;5053884;28;20457;-59
2023/04/03 03:32:18;;;;;;;7.63;6.93;;;4.10;97.90;;;;;;5053688;28;20457;-59
2023/04/03 03:34:45;;;;;;;7.60;6.90;;;4.10;98.00;;;;;;5053230;28;20523;-59
2023/04/03 03:37:11;;;;;;;8.07;7.13;;;4.10;98.10;;;;;;5053539;28;20456;-59
2023/04/03 03:39:38;;;;;;;7.67;6.97;;;4.10;98.10;;;;;;5053215;28;20981;-59
2023/04/03 03:42:05;;;;;;;7.07;6.23;;;4.10;98.20;;;;;;5053593;28;20452;-59
2023/04/03 03:44:31;;;;;;;10.40;7.87;;;4.10;98.20;;;;;;5053519;28;20462;-58
2023/04/03 03:46:58;;;;;;;8.43;6.47;;;4.10;98.20;;;;;;5053029;28;20916;-59
2023/04/03 03:49:26;;;;;;;9.90;7.27;;;4.10;98.30;;;;;;5053734;28;20814;-59
2023/04/03 03:51:53;;;;;;;7.70;7.00;;;4.10;98.30;;;;;;5053023;28;20446;-59
2023/04/03 03:54:20;;;;;;;7.80;7.00;;;4.10;98.30;;;;;;5052935;28;20877;-59
2023/04/03 03:56:46;;;;;;;9.80;7.93;;;4.10;98.40;;;;;;5053322;28;20499;-59
2023/04/03 03:59:13;;;;;;;9.30;8.30;;;4.10;98.30;;;;;;5053261;28;20445;-59
2023/04/03 04:01:40;;;;;;;6.97;6.37;;;4.00;98.30;;;;;;5053261;28;20458;-59
2023/04/03 04:04:07;;;;;;;8.50;7.70;;;4.00;98.30;;;;;;5053177;28;20474;-58
2023/04/03 04:06:35;;;;;;;9.30;7.70;;;4.00;98.40;;;;;;5053147;28;20485;-58
2023/04/03 04:09:01;;;;;;;10.30;8.13;;;4.00;98.40;;;;;;5053232;28;20456;-58
2023/04/03 04:11:28;;;;;;;8.30;7.47;;;4.00;98.40;;;;;;5052836;28;20982;-58
2023/04/03 04:13:55;;;;;;;10.47;7.80;;;4.00;98.50;;;;;;5053309;28;20473;-58
2023/04/03 04:16:21;;;;;;;8.50;7.80;;;4.00;98.50;;;;;;5053098;28;20445;-58
2023/04/03 04:18:48;;;;;;;9.10;8.17;;;3.90;98.30;;;;;;5053204;28;20446;-58
2023/04/03 04:21:15;;;;;;;7.27;6.57;;;3.90;98.20;;;;;;5053095;28;20453;-58
2023/04/03 04:23:43;;;;;;;11.53;7.83;;;3.90;98.10;;;;;;5052986;28;20469;-58
2023/04/03 04:26:10;;;;;;;7.50;6.80;;;3.90;98.10;;;;;;5052934;28;20646;-58
2023/04/03 04:28:36;;;;;;;10.03;7.17;;;3.90;98.10;;;;;;5052997;28;20486;-58
2023/04/03 04:31:03;;;;;;;10.67;8.07;;;3.90;98.10;;;;;;5052989;28;20449;-58
2023/04/03 04:33:30;;;;;;;8.50;7.70;;;3.80;98.00;;;;;;5052913;28;20473;-59
2023/04/03 04:35:57;;;;;;;7.73;6.50;;;3.80;97.90;;;;;;5052933;28;20444;-59
2023/04/03 04:38:23;;;;;;;8.80;7.00;;;3.80;97.80;;;;;;5052517;28;20822;-59
2023/04/03 04:40:51;;;;;;;7.50;6.90;;;3.70;97.80;;;;;;5052979;28;20429;-59
2023/04/03 04:43:18;;;;;;;7.33;6.57;;;3.70;97.70;;;;;;5052834;28;20469;-59
2023/04/03 04:45:45;;;;;;;7.70;6.90;;;3.70;97.60;;;;;;5052671;28;20456;-59
2023/04/03 04:48:12;;;;;;;7.63;6.93;;;3.60;97.50;;;;;;5052734;28;20456;-58
2023/04/03 04:50:38;;;;;;;7.10;6.40;;;3.60;97.50;;;;;;5052744;28;20457;-58
2023/04/03 04:53:05;;;;;;;6.70;6.10;;;3.60;97.60;;;;;;5052739;28;20510;-58
2023/04/03 04:55:32;;;;;;;8.13;7.33;;;3.50;97.50;;;;;;5052654;28;20560;-58
2023/04/03 04:58:00;;;;;;;7.23;6.63;;;3.50;97.50;;;;;;5052672;28;20556;-59
2023/04/03 05:00:27;;;;;;;8.10;7.30;;;3.50;97.60;;;;;;5052694;28;20453;-59
2023/04/03 05:02:54;;;;;;;9.20;7.20;;;3.50;97.50;;;;;;5054226;28;20468;-59
2023/04/03 05:05:21;;;;;;;11.50;7.30;;;3.40;97.50;;;;;;5056457;28;20544;-59
2023/04/03 05:07:47;;;;;;;7.37;6.77;;;3.50;97.70;;;;;;5055906;28;20477;-59
2023/04/03 05:10:14;;;;;;;7.67;6.73;;;3.50;97.70;;;;;;5056447;28;20460;-59
2023/04/03 05:12:40;;;;;;;9.20;8.30;;;3.40;97.70;;;;;;5056285;28;20449;-58
2023/04/03 05:15:10;;;;;;;8.83;7.57;;;3.40;98.10;;;;;;5056347;28;20452;-59
2023/04/03 05:17:37;;;;;;;8.27;7.47;;;3.50;97.80;;;;;;5056332;28;20450;-59
2023/04/03 05:20:04;;;;;;;8.57;7.20;;;3.40;97.70;;;;;;5056039;28;20462;-59
2023/04/03 05:22:32;;;;;;;12.43;8.00;;;3.50;97.70;;;;;;5055843;28;20905;-58
2023/04/03 05:24:58;;;;;;;10.03;7.80;;;3.40;97.80;;;;;;5055989;28;20560;-58
2023/04/03 05:27:27;;;;;;;10.77;8.77;;;3.40;97.80;;;;;;5056415;28;20504;-59
2023/04/03 05:29:54;;;;;;;9.87;8.97;;;3.40;97.80;;;;;;5055947;28;20453;-58
2023/04/03 05:32:23;;;;;;;10.10;9.10;;;3.40;97.80;;;;;;5055808;28;20438;-58
2023/04/03 05:34:50;;;;;;;11.40;9.90;;;3.50;97.90;;;;;;5055703;28;20470;-58
2023/04/03 05:37:17;;;;;;;14.20;8.80;;;3.40;97.80;;;;;;5055535;28;20441;-59
2023/04/03 05:39:44;;;;;;;11.03;9.00;;;3.50;97.90;;;;;;5055642;28;20963;-59
2023/04/03 05:42:11;;;;;;;8.70;7.80;;;3.50;97.90;;;;;;5055698;28;20460;-59
2023/04/03 05:44:37;;;;;;;10.73;8.73;;;3.50;97.90;;;;;;5055173;28;20478;-59
2023/04/03 05:47:04;;;;;;;8.40;7.60;;;3.50;97.90;;;;;;5056417;28;20502;-59
2023/04/03 05:49:33;;;;;;;8.13;7.33;;;3.40;97.90;;;;;;5055616;28;20524;-59
2023/04/03 05:52:00;;;;;;;7.73;7.03;;;3.40;97.90;;;;;;5056016;28;20475;-58
2023/04/03 05:54:28;;;;;;;8.53;7.10;;;3.50;98.10;;;;;;5055431;28;20477;-59
2023/04/03 05:56:55;;;;;;;8.07;7.20;;;3.40;98.10;;;;;;5055153;28;20445;-59
2023/04/03 05:59:22;;;;;;;7.70;6.90;;;3.40;98.10;;;;;;5055042;28;20813;-59
2023/04/03 06:01:49;;;;;;;9.73;7.13;;;3.50;98.30;;;;;;5055355;28;20489;-59
2023/04/03 06:04:16;;;;;;;7.90;6.40;;;3.50;98.50;;;;;;5054912;28;20826;-58
2023/04/03 06:06:47;;;;;;;13.77;6.73;;;3.60;98.60;;;;;;5055216;28;20509;-58
2023/04/03 06:09:14;;;;;;;7.57;6.10;;;3.60;98.60;;;;;;5055155;28;20469;-58
2023/04/03 06:11:41;;;;;;;8.77;5.90;;;3.60;98.70;;;;;;5054987;28;20805;-58
2023/04/03 06:14:08;;;;;;;8.73;5.90;;;3.70;98.80;;;;;;5054581;28;20523;-58
2023/04/03 06:16:35;;;;;;;6.23;5.50;;;3.70;99.00;;;;;;5055032;28;20446;-59
2023/04/03 06:19:02;;;;;;;8.37;5.90;;;3.80;99.20;;;;;;5055065;28;20441;-59
2023/04/03 06:21:29;;;;;;;10.33;7.00;;;3.90;99.30;;;;;;5054937;28;20499;-59
2023/04/03 06:23:57;;;;;;;6.67;5.93;;;3.90;99.40;;;;;;5054807;28;20496;-59
2023/04/03 06:26:23;;;;;;;9.27;5.53;;;4.00;99.50;;;;;;5054416;28;20504;-59
2023/04/03 06:28:50;;;;;;;7.17;6.10;;;4.00;99.50;;;;;;5055502;28;20449;-59
2023/04/03 06:31:17;;;;;;;7.53;6.80;;;4.10;99.60;;;;;;5055149;28;20457;-59
2023/04/03 06:33:43;;;;;;;8.60;6.10;;;4.10;99.60;;;;;;5054428;28;20878;-59
2023/04/03 06:36:12;;;;;;;7.33;6.30;;;4.20;99.60;;;;;;5054630;28;20881;-59
2023/04/03 06:38:39;;;;;;;8.50;6.63;;;4.20;99.60;;;;;;5054387;28;20460;-59
2023/04/03 06:41:07;;;;;;;9.77;6.33;;;4.30;99.70;;;;;;5054543;28;20817;-59
2023/04/03 06:43:34;;;;;;;8.97;8.07;;;4.30;99.70;;;;;;5054418;28;20474;-58
2023/04/03 06:46:00;;;;;;;8.23;7.47;;;4.40;99.70;;;;;;5055243;28;20449;-58
2023/04/03 06:48:27;;;;;;;9.50;7.10;;;4.50;99.70;;;;;;5054255;28;20905;-59
2023/04/03 06:50:54;;;;;;;14.60;7.53;;;4.50;99.70;;;;;;5054315;28;20818;-59
2023/04/03 06:53:21;;;;;;;9.63;7.97;;;4.60;99.70;;;;;;5054067;28;20843;-59
2023/04/03 06:55:48;;;;;;;10.40;7.37;;;4.60;99.70;;;;;;5054131;28;20450;-59
2023/04/03 06:58:17;;;;;;;8.07;7.37;;;4.70;99.80;;;;;;5054198;28;20456;-58
2023/04/03 07:00:43;;;;;;;6.63;5.90;;;4.80;99.90;;;;;;5054084;28;20485;-58
2023/04/03 07:03:10;;;;;;;6.77;5.00;;;4.90;99.70;;;;;;5053998;28;20465;-57
2023/04/03 07:05:37;;;;;;;7.20;4.90;;;5.00;99.70;;;;;;5054066;28;20476;-58
2023/04/03 07:08:04;;;;;;;4.90;4.07;;;5.10;99.50;;;;;;5053938;28;20484;-58
2023/04/03 07:10:31;;;;;;;4.80;4.07;;;5.10;99.30;;;;;;5054080;28;20445;-58
2023/04/03 07:12:58;;;;;;;6.03;4.27;;;5.20;99.00;;;;;;5053948;28;20469;-58
2023/04/03 07:15:26;;;;;;;7.00;4.20;;;5.30;99.00;;;;;;5053975;28;20450;-58
2023/04/03 07:17:53;;;;;;;7.50;4.63;;;5.40;98.90;;;;;;5053873;28;20441;-58
2023/04/03 07:20:19;;;;;;;6.67;4.10;;;5.50;98.90;;;;;;5053837;28;20579;-59
2023/04/03 07:22:46;;;;;;;6.73;3.50;;;5.60;98.80;;;;;;5053668;28;20456;-59
2023/04/03 07:25:13;;;;;;;3.30;2.73;;;5.80;98.50;;;;;;5053034;28;20449;-59
2023/04/03 07:27:40;;;;;;;4.33;3.67;;;5.80;97.90;;;;;;5054415;28;20827;-59
2023/04/03 07:30:07;;;;;;;2.30;2.10;;;6.00;97.70;;;;;;5053216;28;20943;-59
2023/04/03 07:32:36;;;;;;;4.57;3.10;;;6.00;96.90;;;;;;5053612;28;20446;-59
2023/04/03 07:35:04;;;;;;;3.70;2.90;;;6.20;96.20;;;;;;5053172;28;21014;-59
2023/04/03 07:37:32;;;;;;;3.83;2.37;;;6.30;96.10;;;;;;5053471;28;20441;-59
2023/04/03 07:39:59;;;;;;;6.97;2.93;;;6.40;95.90;;;;;;5053285;28;20639;-59
2023/04/03 07:42:27;;;;;;;8.47;2.40;;;6.60;95.30;;;;;;5053394;28;20454;-59
2023/04/03 07:44:54;;;;;;;7.13;2.70;;;6.70;95.10;;;;;;5053292;28;20474;-59
2023/04/03 07:47:21;;;;;;;2.63;2.17;;;6.80;94.60;;;;;;5053080;28;21061;-59
2023/04/03 07:49:49;;;;;;;2.80;2.00;;;7.00;94.20;;;;;;5053550;28;20453;-59
2023/04/03 07:52:16;;;;;;;2.83;1.90;;;7.10;93.30;;;;;;5053319;28;20454;-59
2023/04/03 07:54:43;;;;;;;5.03;2.17;;;7.20;92.60;;;;;;5053924;28;20551;-58
2023/04/03 07:57:10;;;;;;;5.50;2.60;;;7.30;91.80;;;;;;5053229;28;20816;-59
2023/04/03 07:59:37;;;;;;;5.13;2.20;;;7.50;92.00;;;;;;5053438;28;20456;-59
2023/04/03 08:02:04;;;;;;;4.87;1.97;;;7.60;92.10;;;;;;5053204;28;20452;-59
2023/04/03 08:04:31;;;;;;;2.27;1.73;;;7.70;90.70;;;;;;5053267;28;20477;-59
2023/04/03 08:06:59;;;;;;;5.57;2.00;;;7.90;90.00;;;;;;5053304;28;20528;-59
2023/04/03 08:09:26;;;;;;;7.73;3.07;;;8.00;89.30;;;;;;5053041;28;20958;-59
2023/04/03 08:11:53;;;;;;;4.10;1.50;;;8.10;88.60;;;;;;5053030;28;20932;-59
2023/04/03 08:14:20;;;;;;;4.00;1.80;;;8.30;88.40;;;;;;5053122;28;20473;-58
2023/04/03 08:16:48;;;;;;;5.17;2.40;;;8.50;86.80;;;;;;5052908;28;21073;-59
2023/04/03 08:19:17;;;;;;;5.83;2.80;;;8.60;85.40;;;;;;5053156;28;20453;-59
2023/04/03 08:21:44;;;;;;;2.13;1.70;;;8.80;83.40;;;;;;5052751;28;20902;-59
2023/04/03 08:24:13;;;;;;;3.60;1.80;;;8.90;82.50;;;;;;5053125;28;20469;-59
2023/04/03 08:26:40;;;;;;;5.90;1.90;;;9.10;82.00;;;;;;5053083;28;20817;-59
2023/04/03 08:29:06;;;;;;;3.03;1.60;;;9.20;80.40;;;;;;5053070;28;21092;-59
2023/04/03 08:31:33;;;;;;;2.57;2.23;;;9.40;79.00;;;;;;5053098;28;20445;-59
2023/04/03 08:34:00;;;;;;;2.30;1.80;;;9.50;77.60;;;;;;5052880;28;20472;-59
2023/04/03 08:36:28;;;;;;;4.53;2.30;;;9.60;77.10;;;;;;5053989;28;20449;-59
2023/04/03 08:38:56;;;;;;;3.90;1.90;;;9.70;73.20;;;;;;5056377;28;20877;-59
2023/04/03 08:41:33;;;;;;;4.50;1.97;;;9.80;71.70;;;;;;5056681;28;20495;-59
2023/04/03 08:44:11;;;;;;;2.60;1.60;;;10.00;70.70;;;;;;5056684;28;20481;-59
2023/04/03 08:46:48;;;;;;;3.90;1.77;;;10.10;70.00;;;;;;5056758;28;20495;-59
2023/04/03 08:49:24;;;;;;;2.67;1.77;;;10.20;67.30;;;;;;5057024;28;20503;-59
2023/04/03 08:51:52;;;;;;;3.30;1.90;;;10.30;67.50;;;;;;5056550;28;20475;-58
2023/04/03 08:54:28;;;;;;;4.13;1.63;;;10.50;65.70;;;;;;5056553;28;20476;-59
2023/04/03 08:56:57;;;;;;;2.27;1.50;;;10.60;64.60;;;;;;5056492;28;20433;-59
2023/04/03 08:59:28;;;;;;;3.30;1.33;;;10.80;63.40;;;;;;5056506;28;20448;-59
2023/04/03 09:01:56;;;;;;;4.00;1.40;;;11.00;64.20;;;;;;5056510;28;20433;-59
2023/04/03 09:04:23;;;;;;;2.80;1.30;;;11.20;64.20;;;;;;5056645;28;20875;-59
2023/04/03 09:06:53;;;;;;;3.33;1.37;;;11.40;60.80;;;;;;5056373;28;20872;-59
2023/04/03 09:09:32;;;;;;;1.57;1.13;;;11.60;58.00;;;;;;5056275;28;20908;-59
2023/04/03 09:12:11;;;;;;;3.17;1.43;;;11.70;57.10;;;;;;5056204;28;20483;-59
2023/04/03 09:14:42;;;;;;;2.00;1.10;;;11.90;56.70;;;;;;5056035;28;20465;-59
2023/04/03 09:17:16;;;;;;;2.70;1.50;;;12.10;56.00;;;;;;5055810;28;20811;-59
2023/04/03 09:19:52;;;;;;;3.57;1.20;;;12.30;53.40;;;;;;5055734;28;20950;-59
2023/04/03 09:22:23;;;;;;;1.83;0.90;;;12.40;51.40;;;;;;5056056;28;20445;-59
2023/04/03 09:24:56;;;;;;;3.57;1.73;;;12.50;51.40;;;;;;5055990;28;20500;-59
2023/04/03 09:27:24;;;;;;;4.57;1.60;;;12.70;50.30;;;;;;5055816;28;20430;-59
2023/04/03 09:29:54;;;;;;;1.93;1.10;;;12.80;49.20;;;;;;5056139;28;20481;-59
2023/04/03 09:32:28;;;;;;;3.07;1.30;;;12.90;49.00;;;;;;5055807;28;20445;-59
2023/04/03 09:34:56;;;;;;;2.10;0.80;;;13.10;48.90;;;;;;5055385;28;20488;-59
2023/04/03 09:37:38;;;;;;;3.13;1.30;;;13.30;48.10;;;;;;5055710;28;20804;-59
2023/04/03 09:40:06;;;;;;;2.53;1.37;;;13.40;47.40;;;;;;5055333;28;20473;-59
2023/04/03 09:42:39;;;;;;;1.77;1.17;;;13.60;46.60;;;;;;5055758;28;20524;-59
2023/04/03 09:45:21;;;;;;;2.40;1.40;;;13.70;47.50;;;;;;5055610;28;20434;-59
2023/04/03 09:47:48;;;;;;;3.53;1.30;;;13.90;47.50;;;;;;5054932;28;20512;-59
2023/04/03 09:50:23;;;;;;;2.13;1.27;;;14.10;45.10;;;;;;5055256;28;20461;-59
2023/04/03 09:52:52;;;;;;;1.80;1.10;;;14.20;45.40;;;;;;5055346;28;20445;-59
2023/04/03 09:55:21;;;;;;;2.20;1.07;;;14.50;45.10;;;;;;5055498;28;20551;-58
2023/04/03 09:57:50;;;;;;;3.50;1.50;;;14.70;44.60;;;;;;5055299;28;20446;-59
2023/04/03 10:00:25;;;;;;;1.87;1.30;;;15.00;44.70;;;;;;5054969;28;20943;-59
2023/04/03 10:02:55;;;;;;;2.03;1.80;;;15.20;43.80;;;;;;5054909;28;20795;-58
2023/04/03 10:05:34;;;;;;;2.80;1.37;;;15.50;43.80;;;;;;5055173;28;20440;-58
2023/04/03 10:08:10;;;;;;;3.57;1.80;;;15.80;43.70;;;;;;5055053;28;20465;-59
2023/04/03 10:10:37;;;;;;;1.50;1.30;;;16.20;42.80;;;;;;5055014;28;20440;-59
2023/04/03 10:13:07;;;;;;;2.70;1.43;;;16.50;42.10;;;;;;5054932;28;20473;-58
2023/04/03 10:15:40;;;;;;;1.93;1.60;;;16.70;41.00;;;;;;5054956;28;20495;-59
2023/04/03 10:18:27;;;;;;;2.23;1.33;;;16.90;39.60;;;;;;5054628;28;20901;-59
2023/04/03 10:20:58;;;;;;;2.60;1.37;;;17.30;39.30;;;;;;5054748;28;20493;-59
2023/04/03 10:23:32;;;;;;;2.20;1.00;;;17.60;38.40;;;;;;5054801;28;20531;-59
2023/04/03 10:26:15;;;;;;;2.73;1.43;;;18.10;38.00;;;;;;5055050;28;20430;-59
2023/04/03 10:28:49;;;;;;;6.77;1.40;;;18.60;38.30;;;;;;5054413;28;20982;-59
2023/04/03 10:31:22;;;;;;;2.10;1.40;;;19.10;36.70;;;;;;5054688;28;20440;-60
2023/04/03 10:34:02;;;;;;;3.23;1.50;;;19.50;36.40;;;;;;5054579;28;20523;-59
2023/04/03 10:36:38;;;;;;;2.60;1.30;;;19.80;34.00;;;;;;5054608;28;20503;-59
2023/04/03 10:39:15;;;;;;;2.23;1.07;;;20.20;34.60;;;;;;5054360;28;20449;-59
2023/04/03 10:41:53;;;;;;;4.03;1.80;;;20.70;31.30;;;;;;5054532;28;20425;-59
2023/04/03 10:44:35;;;;;;;3.50;1.30;;;21.10;30.30;;;;;;5054413;28;20465;-59
2023/04/03 10:47:09;;;;;;;2.70;1.23;;;21.60;30.00;;;;;;5054438;28;20473;-59
2023/04/03 10:49:48;;;;;;;1.87;1.17;;;22.20;29.10;;;;;;5054355;28;20559;-59
2023/04/03 10:52:21;;;;;;;3.30;1.73;;;22.60;27.80;;;;;;5054641;28;20430;-59
2023/04/03 10:54:56;;;;;;;2.20;1.53;;;23.00;28.00;;;;;;5054719;28;20497;-59
2023/04/03 10:57:25;;;;;;;2.20;1.20;;;23.50;27.00;;;;;;5054338;28;20433;-59
2023/04/03 10:59:56;;;;;;;2.47;1.33;;;23.90;26.00;;;;;;5053174;28;20468;-59
2023/04/03 11:02:26;;;;;;;3.13;1.20;;;24.30;26.00;;;;;;5054204;28;20436;-59
2023/04/03 11:04:58;;;;;;;1.77;1.23;;;24.70;26.20;;;;;;5054121;28;20469;-59
2023/04/03 11:07:27;;;;;;;3.20;1.20;;;24.90;25.10;;;;;;5054023;28;20434;-59
2023/04/03 11:09:58;;;;;;;1.77;1.10;;;25.20;24.90;;;;;;5053824;28;20477;-59
2023/04/03 11:12:29;;;;;;;3.27;1.20;;;25.50;24.20;;;;;;5054015;28;20437;-59
2023/04/03 11:14:58;;;;;;;1.53;1.23;;;25.80;24.30;;;;;;5053823;28;20477;-59
2023/04/03 11:17:32;;;;;;;2.10;1.30;;;26.20;23.70;;;;;;5053883;28;20453;-59
2023/04/03 11:20:07;;;;;;;2.00;1.20;;;26.50;24.40;;;;;;5053531;28;20911;-59
2023/04/03 11:22:37;;;;;;;2.33;1.30;;;26.90;23.40;;;;;;5053793;28;20457;-59
2023/04/03 11:25:07;;;;;;;1.90;1.30;;;27.20;23.10;;;;;;5053735;28;20520;-59
2023/04/03 11:27:40;;;;;;;2.53;1.70;;;27.60;23.00;;;;;;5053414;28;20904;-59
2023/04/03 11:30:17;;;;;;;2.73;1.53;;;28.00;22.30;;;;;;5053246;28;20467;-59
2023/04/03 11:33:06;;;;;;;2.20;1.50;;;28.30;21.80;;;;;;5053520;28;20433;-59
2023/04/03 11:35:34;;;;;;;2.93;1.27;;;28.60;21.70;;;;;;5043743;28;21004;-59
2023/04/03 11:38:05;;;;;;;3.27;1.37;;;28.90;21.70;;;;;;5053405;28;20453;-59
2023/04/03 11:40:34;;;;;;;2.27;1.30;;;29.20;21.50;;;;;;5053571;28;20528;-59
2023/04/03 11:43:07;;;;;;;3.17;1.27;;;29.50;20.80;;;;;;5053171;28;20475;-59
2023/04/03 11:45:50;;;;;;;3.37;1.50;;;29.90;20.50;;;;;;5053476;28;20433;-59
2023/04/03 11:48:46;;;;;;;1.70;1.10;;;30.20;19.90;;;;;;5053433;28;20464;-59
2023/04/03 11:51:43;;;;;;;2.90;1.43;;;30.40;19.30;;;;;;5053184;28;20930;-59
2023/04/03 11:54:45;;;;;;;3.63;1.20;;;30.70;19.60;;;;;;5053330;28;20464;-59
2023/04/03 11:58:04;;;;;;;1.60;1.13;;;31.00;19.30;;;;;;5049253;28;20456;-60
2023/04/03 12:01:06;;;;;;;3.03;1.27;;;31.30;18.70;;;;;;5052972;28;21088;-60
2023/04/03 12:04:08;;;;;;;1.37;1.00;;;31.70;18.20;;;;;;5052731;28;20989;-60
2023/04/03 12:07:12;;;;;;;2.60;1.23;;;31.90;17.60;;;;;;5053284;28;20459;-60
2023/04/03 12:10:16;;;;;;;2.70;1.43;;;32.20;17.80;;;;;;5053042;28;20903;-60
2023/04/03 12:12:43;;;;;;;3.58;1.30;;;32.60;17.40;;;;;;5055713;28;20439;-59
2023/04/03 12:15:20;;;;;;;1.90;1.30;;;32.90;16.90;;;;;;5057516;28;20297;-60
2023/04/03 12:17:48;;;;;;;2.63;1.30;;;32.90;17.80;;;;;;5057178;28;20208;-60
2023/04/03 12:20:56;;;;;;;1.37;1.27;;;33.10;17.30;;;;;;5057104;28;20503;-60
2023/04/03 12:23:26;;;;;;;2.60;1.50;;;33.30;17.10;;;;;;5057062;28;20573;-59
2023/04/03 12:26:01;;;;;;;2.03;1.20;;;33.40;16.60;;;;;;5057111;28;20584;-60
2023/04/03 12:28:28;;;;;;;2.77;1.30;;;33.60;17.00;;;;;;5057066;28;20182;-60
2023/04/03 12:30:55;;;;;;;2.77;1.53;;;34.00;16.20;;;;;;5056944;28;20198;-60
2023/04/03 12:33:34;;;;;;;4.25;1.35;;;34.30;16.00;;;;;;5056793;28;20254;-59
2023/04/03 12:36:09;;;;;;;2.55;1.48;;;34.60;15.70;;;;;;5056613;28;20541;-60
2023/04/03 12:39:03;;;;;;;2.47;1.40;;;34.80;15.20;;;;;;5057336;28;20221;-58
2023/04/03 12:41:39;;;;;;;2.58;1.42;;;35.20;15.50;;;;;;5056540;28;20183;-60
2023/04/03 12:44:21;;;;;;;3.00;1.08;;;35.40;14.90;;;;;;5056646;28;20280;-60
2023/04/03 12:46:50;;;;;;;1.38;0.93;;;35.60;14.90;;;;;;5056753;28;20253;-60
2023/04/03 12:49:33;;;;;;;2.30;1.30;;;35.60;13.80;;;;;;5056677;28;20209;-58
2023/04/03 12:52:01;;;;;;;2.67;1.17;;;35.30;14.00;;;;;;5056607;28;20190;-58
2023/04/03 12:54:33;;;;;;;2.67;1.40;;;35.30;14.70;;;;;;5056223;28;20218;-58
2023/04/03 12:57:14;;;;;;;1.88;0.77;;;35.50;14.60;;;;;;5056547;28;20244;-58
2023/04/03 12:59:41;;;;;;;1.58;1.10;;;35.80;14.90;;;;;;5056346;28;20213;-59
2023/04/03 13:02:21;;;;;;;2.13;1.20;;;36.00;14.40;;;;;;5056370;28;20241;-59
2023/04/03 13:04:49;;;;;;;1.73;1.25;;;36.20;14.10;;;;;;5056263;28;20304;-58
2023/04/03 13:07:27;;;;;;;2.85;1.33;;;36.10;13.60;;;;;;5056335;28;20609;-59